Ferndown, United Kingdom
Current Conditions -  °F | °C
As of 12:20 PM on Thursday 18 Dec 2014 (Local Time) from EGHH Reporting Station
Broken Clouds Broken Clouds  
Wind Chill: 55°   Ceiling: 2300
Heat Index: 55°   Visibility: 6mi
Dew Point: 52°   Wind: 17mph
Humidity: 88%   Direction: 250°WSW
Pressure: 29.91"   Gusts: 35mph
Location:  50.78°N, 1.88°W
Report Text: EGHH 181220Z 25015G30KT 9999 SCT013 BKN023 13/11 Q1013
Loading
Personal Weather Stations






























Interactive Weather Map New forecast layout! Learn more

10-Day Weather Forecast

Advertisements
Track Severe Weather on mobile